createdAt,value
2024-04-14T00:00:25.352Z,20.43
2024-04-14T00:02:55.436Z,20.23
2024-04-14T00:05:23.224Z,19.87
2024-04-14T00:07:50.856Z,19.80
2024-04-14T00:10:18.817Z,19.80
2024-04-14T00:12:46.301Z,19.86
2024-04-14T00:15:28.174Z,19.76
2024-04-14T00:17:58.090Z,19.87
2024-04-14T00:20:27.002Z,19.66
2024-04-14T00:22:57.625Z,19.60
2024-04-14T00:25:24.985Z,19.63
2024-04-14T00:27:52.292Z,19.47
2024-04-14T00:30:19.927Z,19.53
2024-04-14T00:32:48.671Z,19.53
2024-04-14T00:35:16.399Z,19.25
2024-04-14T00:37:46.321Z,19.17
2024-04-14T00:40:13.737Z,19.15
2024-04-14T00:42:43.657Z,18.94
2024-04-14T00:45:13.474Z,18.81
2024-04-14T00:47:41.488Z,18.99
2024-04-14T00:50:11.249Z,18.89
2024-04-14T00:52:43.599Z,18.76
2024-04-14T00:55:13.036Z,19.04
2024-04-14T00:57:43.654Z,19.10
2024-04-14T01:00:12.881Z,18.87
2024-04-14T01:02:40.079Z,18.74
2024-04-14T01:05:07.916Z,18.74
2024-04-14T01:07:35.804Z,18.89
2024-04-14T01:10:05.818Z,18.59
2024-04-14T01:12:33.366Z,18.43
2024-04-14T01:15:03.419Z,18.42
2024-04-14T01:17:30.880Z,18.54
2024-04-14T01:19:58.097Z,18.58
2024-04-14T01:22:25.337Z,18.56
2024-04-14T01:24:57.806Z,18.74
2024-04-14T01:27:27.684Z,18.59
2024-04-14T01:29:55.635Z,18.45
2024-04-14T01:32:23.021Z,18.43
2024-04-14T01:34:50.198Z,18.41
2024-04-14T01:37:17.356Z,18.51
2024-04-14T01:39:47.214Z,18.35
2024-04-14T01:42:14.737Z,18.39
2024-04-14T01:44:42.371Z,18.22
2024-04-14T01:47:10.892Z,18.44
2024-04-14T01:49:40.647Z,18.27
2024-04-14T01:52:08.044Z,18.14
2024-04-14T01:54:37.916Z,18.07
2024-04-14T01:57:05.775Z,18.07
2024-04-14T01:59:33.821Z,18.15
2024-04-14T02:02:00.989Z,17.98
2024-04-14T02:04:30.838Z,17.91
2024-04-14T02:06:58.507Z,17.83
2024-04-14T02:09:26.057Z,17.62
2024-04-14T02:11:53.625Z,17.57
2024-04-14T02:14:21.101Z,17.61
2024-04-14T02:16:48.472Z,17.75
2024-04-14T02:19:17.038Z,17.72
2024-04-14T02:21:44.741Z,17.73
2024-04-14T02:24:12.142Z,17.37
2024-04-14T02:26:39.443Z,17.57
2024-04-14T02:29:09.197Z,17.59
2024-04-14T02:31:39.112Z,17.57
2024-04-14T02:34:09.487Z,17.51
2024-04-14T02:36:39.280Z,17.72
2024-04-14T02:39:10.047Z,17.89
2024-04-14T02:41:39.330Z,17.75
2024-04-14T02:44:07.117Z,17.94
2024-04-14T02:46:36.442Z,17.87
2024-04-14T02:49:04.096Z,17.62
2024-04-14T02:51:34.156Z,17.72
2024-04-14T02:54:01.608Z,17.62
2024-04-14T02:56:29.451Z,17.54
2024-04-14T02:58:56.992Z,17.57
2024-04-14T03:01:26.842Z,17.68
2024-04-14T03:03:56.886Z,17.69
2024-04-14T03:06:29.667Z,17.85
2024-04-14T03:08:56.941Z,17.62
2024-04-14T03:11:26.914Z,17.75
2024-04-14T03:13:57.979Z,17.73
2024-04-14T03:16:25.416Z,17.86
2024-04-14T03:18:53.017Z,18.03
2024-04-14T03:21:23.787Z,17.60
2024-04-14T03:23:51.852Z,17.49
2024-04-14T03:26:21.596Z,17.47
2024-04-14T03:28:49.225Z,17.35
2024-04-14T03:31:16.704Z,17.31
2024-04-14T03:33:44.070Z,17.08
2024-04-14T03:36:11.430Z,17.06
2024-04-14T03:38:38.915Z,17.22
2024-04-14T03:41:06.856Z,16.94
2024-04-14T03:43:34.204Z,16.59
2024-04-14T03:46:04.109Z,16.53
2024-04-14T03:48:31.446Z,16.41
2024-04-14T03:51:01.253Z,16.35
2024-04-14T03:53:31.774Z,16.53
2024-04-14T03:55:59.042Z,16.48
2024-04-14T03:58:26.292Z,16.31
2024-04-14T04:00:53.743Z,16.12
2024-04-14T04:03:21.340Z,16.07
2024-04-14T04:05:56.619Z,15.95
2024-04-14T04:08:24.863Z,16.01
2024-04-14T04:11:04.562Z,15.94
2024-04-14T04:13:35.916Z,15.94
2024-04-14T04:16:08.445Z,15.81
2024-04-14T04:18:37.428Z,15.44
2024-04-14T04:21:10.836Z,15.50
2024-04-14T04:23:38.498Z,15.64
2024-04-14T04:26:06.010Z,15.47
2024-04-14T04:28:36.903Z,15.50
2024-04-14T04:31:15.370Z,15.71
2024-04-14T04:33:45.670Z,15.50
2024-04-14T04:36:15.452Z,15.36
2024-04-14T04:38:45.683Z,15.38
2024-04-14T04:41:16.346Z,15.38
2024-04-14T04:43:44.924Z,15.35
2024-04-14T04:46:12.609Z,15.07
2024-04-14T04:48:40.335Z,15.19
2024-04-14T04:51:10.229Z,15.04
2024-04-14T04:53:37.433Z,14.97
2024-04-14T04:56:05.091Z,15.01
2024-04-14T04:58:32.511Z,14.92
2024-04-14T05:01:00.330Z,14.74
2024-04-14T05:03:32.517Z,14.75
2024-04-14T05:06:02.816Z,14.81
2024-04-14T05:08:30.665Z,14.85
2024-04-14T05:11:00.156Z,14.94
2024-04-14T05:13:32.255Z,15.10
2024-04-14T05:16:04.984Z,14.82
2024-04-14T05:18:35.732Z,15.06
2024-04-14T05:21:03.360Z,15.08
2024-04-14T05:23:30.982Z,14.85
2024-04-14T05:26:02.234Z,15.10
2024-04-14T05:28:43.838Z,15.40
2024-04-14T05:31:15.265Z,15.34
2024-04-14T05:33:42.571Z,15.20
2024-04-14T05:36:10.043Z,15.58
2024-04-14T05:38:43.434Z,15.79
2024-04-14T05:41:13.608Z,15.76
2024-04-14T05:43:41.639Z,15.78
2024-04-14T05:46:11.797Z,15.71
2024-04-14T05:49:18.587Z,15.66
2024-04-14T05:51:59.528Z,16.06
2024-04-14T05:54:27.475Z,15.45
2024-04-14T05:56:57.309Z,15.44
2024-04-14T05:59:24.813Z,15.52
2024-04-14T06:01:54.902Z,15.36
2024-04-14T06:04:24.951Z,15.46
2024-04-14T06:06:53.274Z,15.67
2024-04-14T06:09:22.873Z,15.82
2024-04-14T06:11:53.701Z,15.83
2024-04-14T06:14:24.277Z,16.11
2024-04-14T06:16:54.615Z,16.01
2024-04-14T06:19:25.549Z,15.94
2024-04-14T06:22:04.045Z,16.39
2024-04-14T06:24:31.394Z,16.44
2024-04-14T06:26:58.824Z,16.31
2024-04-14T06:29:26.418Z,16.11
2024-04-14T06:31:59.397Z,16.52
2024-04-14T06:34:37.572Z,16.60
2024-04-14T06:37:24.086Z,16.76
2024-04-14T06:40:01.738Z,16.51
2024-04-14T06:42:30.146Z,16.38
2024-04-14T06:44:57.631Z,15.96
2024-04-14T06:47:42.914Z,16.27
2024-04-14T06:50:15.831Z,16.70
2024-04-14T06:52:57.407Z,16.62
2024-04-14T06:55:28.418Z,16.77
2024-04-14T06:58:16.519Z,16.72
2024-04-14T07:01:03.108Z,16.57
2024-04-14T07:03:35.152Z,16.40
2024-04-14T07:06:06.162Z,16.63
2024-04-14T07:08:56.065Z,16.77
2024-04-14T07:11:39.476Z,17.26
2024-04-14T07:14:19.348Z,16.77
2024-04-14T07:17:02.300Z,16.72
2024-04-14T07:19:43.873Z,16.98
2024-04-14T07:22:12.231Z,17.45
2024-04-14T07:24:41.971Z,17.58
2024-04-14T07:27:09.370Z,17.72
2024-04-14T07:29:37.349Z,17.99
2024-04-14T07:32:05.368Z,17.98
2024-04-14T07:34:33.152Z,18.13
2024-04-14T07:37:04.264Z,17.84
2024-04-14T07:39:35.277Z,17.57
2024-04-14T07:42:09.748Z,17.83
2024-04-14T07:44:39.986Z,17.97
2024-04-14T07:47:10.260Z,18.36
2024-04-14T07:49:38.201Z,18.41
2024-04-14T07:52:06.225Z,18.46
2024-04-14T07:54:35.977Z,18.28
2024-04-14T07:57:06.999Z,18.47
2024-04-14T07:59:34.527Z,18.85
2024-04-14T08:02:03.286Z,18.85
2024-04-14T08:04:32.960Z,18.47
2024-04-14T08:07:01.168Z,18.69
2024-04-14T08:09:32.309Z,18.57
2024-04-14T08:12:00.060Z,18.76
2024-04-14T08:14:27.360Z,18.44
2024-04-14T08:16:56.963Z,18.98
2024-04-14T08:19:25.645Z,18.99
2024-04-14T08:21:53.812Z,19.66
2024-04-14T08:24:26.268Z,20.39
2024-04-14T08:26:56.285Z,20.96
2024-04-14T08:29:24.266Z,21.07
2024-04-14T08:31:51.841Z,21.13
2024-04-14T08:34:22.984Z,20.99
2024-04-14T08:36:52.181Z,20.99
2024-04-14T08:39:23.159Z,20.47
2024-04-14T08:41:54.284Z,20.41
2024-04-14T08:44:22.112Z,20.28
2024-04-14T08:46:50.106Z,20.52
2024-04-14T08:49:20.358Z,20.82
2024-04-14T08:51:51.420Z,21.17
2024-04-14T08:54:19.282Z,21.48
2024-04-14T08:56:53.471Z,21.89
2024-04-14T08:59:29.646Z,22.60
2024-04-14T09:01:59.180Z,23.06
2024-04-14T09:04:27.264Z,23.51
2024-04-14T09:06:54.660Z,22.87
2024-04-14T09:09:24.806Z,22.93
2024-04-14T09:11:55.500Z,23.55
2024-04-14T09:14:24.258Z,23.34
2024-04-14T09:16:52.997Z,22.88
2024-04-14T09:19:20.645Z,23.25
2024-04-14T09:21:48.558Z,23.24
2024-04-14T09:24:15.917Z,22.98
2024-04-14T09:26:45.571Z,24.31
2024-04-14T09:29:16.491Z,23.56
2024-04-14T09:31:46.412Z,23.84
2024-04-14T09:34:14.151Z,24.09
2024-04-14T09:36:45.734Z,24.24
2024-04-14T09:39:16.795Z,24.12
2024-04-14T09:41:45.599Z,24.65
2024-04-14T09:44:14.066Z,24.02
2024-04-14T09:46:45.011Z,24.35
2024-04-14T09:49:15.328Z,24.57
2024-04-14T09:51:44.839Z,25.58
2024-04-14T09:54:17.536Z,26.37
2024-04-14T09:56:45.004Z,26.32
2024-04-14T09:59:12.772Z,25.55
2024-04-14T10:01:47.317Z,24.86
2024-04-14T10:04:17.911Z,25.21
2024-04-14T10:06:46.251Z,25.43
2024-04-14T10:09:13.756Z,25.06
2024-04-14T10:11:47.059Z,25.28
2024-04-14T10:14:17.340Z,25.46
2024-04-14T10:17:00.658Z,25.10
2024-04-14T10:19:29.543Z,24.52
2024-04-14T10:22:08.783Z,24.14
2024-04-14T10:25:06.376Z,25.20
2024-04-14T10:27:37.594Z,25.28
2024-04-14T10:30:07.335Z,25.08
2024-04-14T10:32:37.163Z,24.93
2024-04-14T10:35:20.564Z,24.56
2024-04-14T10:37:56.196Z,24.84
2024-04-14T10:40:28.175Z,24.45
2024-04-14T10:42:55.755Z,23.98
2024-04-14T10:45:31.147Z,23.95
2024-04-14T10:48:03.737Z,23.82
2024-04-14T10:50:31.331Z,24.45
2024-04-14T10:52:58.612Z,25.17
2024-04-14T10:55:29.515Z,25.69
2024-04-14T10:57:56.921Z,25.28
2024-04-14T11:00:24.720Z,24.68
2024-04-14T11:02:54.750Z,25.16
2024-04-14T11:05:24.684Z,25.35
2024-04-14T11:07:54.119Z,25.94
2024-04-14T11:10:26.214Z,25.12
2024-04-14T11:12:54.847Z,24.94
2024-04-14T11:15:22.296Z,24.78
2024-04-14T11:17:49.600Z,25.00
2024-04-14T11:20:17.309Z,23.41
2024-04-14T11:22:47.539Z,22.51
2024-04-14T11:25:14.996Z,21.61
2024-04-14T11:27:42.448Z,20.75
2024-04-14T11:30:13.011Z,21.49
2024-04-14T11:32:40.938Z,22.87
2024-04-14T11:35:10.623Z,23.89
2024-04-14T11:37:46.241Z,24.93
2024-04-14T11:40:19.158Z,25.23
2024-04-14T11:42:46.630Z,26.33
2024-04-14T11:45:14.540Z,26.20
2024-04-14T11:47:42.049Z,25.94
2024-04-14T11:50:13.533Z,25.96
2024-04-14T11:52:43.617Z,26.24
2024-04-14T11:55:13.741Z,26.48
2024-04-14T11:57:41.255Z,26.44
2024-04-14T12:00:09.308Z,26.77
2024-04-14T12:02:36.796Z,26.24
2024-04-14T12:05:07.602Z,25.58
2024-04-14T12:07:39.685Z,23.87
2024-04-14T12:10:07.962Z,24.22
2024-04-14T12:12:37.935Z,24.57
2024-04-14T12:15:06.191Z,23.99
2024-04-14T12:17:33.704Z,23.85
2024-04-14T12:20:03.591Z,23.46
2024-04-14T12:22:31.085Z,22.83
2024-04-14T12:24:58.591Z,22.02
2024-04-14T12:27:30.704Z,21.96
2024-04-14T12:30:00.762Z,22.81
2024-04-14T12:32:29.022Z,23.11
2024-04-14T12:34:56.480Z,23.51
2024-04-14T12:37:23.951Z,23.37
2024-04-14T12:39:56.681Z,23.05
2024-04-14T12:42:24.242Z,22.37
2024-04-14T12:44:51.616Z,22.80
2024-04-14T12:47:24.380Z,22.67
2024-04-14T12:49:53.907Z,22.01
2024-04-14T12:52:21.343Z,21.46
2024-04-14T12:54:49.093Z,21.38
2024-04-14T12:57:20.907Z,21.57
2024-04-14T12:59:54.320Z,21.50
2024-04-14T13:02:21.933Z,21.95
2024-04-14T13:04:52.038Z,22.53
2024-04-14T13:07:22.105Z,22.74
2024-04-14T13:09:50.180Z,23.35
2024-04-14T13:12:17.655Z,23.29
2024-04-14T13:14:45.699Z,22.70
2024-04-14T13:17:13.252Z,22.76
2024-04-14T13:19:40.644Z,23.23
2024-04-14T13:22:10.239Z,23.27
2024-04-14T13:24:37.684Z,22.82
2024-04-14T13:27:05.117Z,22.02
2024-04-14T13:29:33.262Z,22.24
2024-04-14T13:32:01.186Z,21.83
2024-04-14T13:34:28.227Z,21.96
2024-04-14T13:36:58.285Z,21.81
2024-04-14T13:39:28.227Z,21.89
2024-04-14T13:41:57.829Z,22.13
2024-04-14T13:44:25.327Z,22.45
2024-04-14T13:46:57.495Z,22.33
2024-04-14T13:49:24.866Z,22.40
2024-04-14T13:51:52.373Z,22.33
2024-04-14T13:54:19.864Z,22.32
2024-04-14T13:56:49.271Z,22.41
2024-04-14T13:59:16.810Z,21.92
2024-04-14T14:01:46.514Z,21.96
2024-04-14T14:04:13.718Z,22.30
2024-04-14T14:06:43.829Z,22.34
2024-04-14T14:09:14.445Z,22.32
2024-04-14T14:11:44.434Z,22.18
2024-04-14T14:14:11.477Z,22.10
2024-04-14T14:16:38.894Z,21.67
2024-04-14T14:19:06.352Z,21.73
2024-04-14T14:21:35.820Z,21.70
2024-04-14T14:24:06.487Z,21.63
2024-04-14T14:26:35.947Z,21.29
2024-04-14T14:29:03.449Z,21.42
2024-04-14T14:31:30.928Z,21.73
2024-04-14T14:34:17.625Z,21.31
2024-04-14T14:36:45.157Z,21.25
2024-04-14T14:39:12.632Z,21.05
2024-04-14T14:41:43.388Z,21.10
2024-04-14T14:44:13.344Z,20.66
2024-04-14T14:46:42.912Z,20.49
2024-04-14T14:49:10.543Z,20.48
2024-04-14T14:51:41.255Z,20.35
2024-04-14T14:54:12.928Z,20.45
2024-04-14T14:56:40.248Z,20.19
2024-04-14T14:59:07.574Z,19.97
2024-04-14T15:01:35.211Z,19.50
2024-04-14T15:04:05.348Z,19.63
2024-04-14T15:06:35.370Z,19.53
2024-04-14T15:09:04.757Z,19.92
2024-04-14T15:11:32.170Z,19.20
2024-04-14T15:13:59.607Z,18.98
2024-04-14T15:16:28.360Z,19.19
2024-04-14T15:18:55.867Z,19.37
2024-04-14T15:21:29.299Z,20.10
2024-04-14T15:24:00.823Z,19.38
2024-04-14T15:26:30.758Z,19.36
2024-04-14T15:29:00.324Z,19.85
2024-04-14T15:31:27.973Z,19.95
2024-04-14T15:33:55.880Z,19.59
2024-04-14T15:36:23.311Z,19.46
2024-04-14T15:38:50.789Z,19.28
2024-04-14T15:41:21.636Z,19.49
2024-04-14T15:43:53.292Z,19.47
2024-04-14T15:46:20.603Z,19.59
2024-04-14T15:48:53.530Z,19.70
2024-04-14T15:51:21.460Z,19.39
2024-04-14T15:53:54.771Z,19.03
2024-04-14T15:56:27.719Z,18.93
2024-04-14T15:58:56.452Z,19.12
2024-04-14T16:01:23.982Z,19.09
2024-04-14T16:03:52.800Z,19.17
2024-04-14T16:06:22.396Z,19.49
2024-04-14T16:08:53.072Z,19.80
2024-04-14T16:11:20.438Z,19.91
2024-04-14T16:13:47.846Z,19.61
2024-04-14T16:16:21.627Z,19.57
2024-04-14T16:18:49.593Z,19.61
2024-04-14T16:21:19.503Z,19.11
2024-04-14T16:23:50.428Z,18.81
2024-04-14T16:26:17.808Z,18.81
2024-04-14T16:28:49.889Z,18.47
2024-04-14T16:31:20.632Z,18.51
2024-04-14T16:33:48.161Z,18.33
2024-04-14T16:36:15.699Z,18.40
2024-04-14T16:38:44.521Z,18.13
2024-04-14T16:41:14.513Z,18.23
2024-04-14T16:43:44.526Z,18.40
2024-04-14T16:46:12.035Z,18.53
2024-04-14T16:48:39.852Z,18.12
2024-04-14T16:51:07.098Z,18.23
2024-04-14T16:53:37.119Z,18.12
2024-04-14T16:56:07.271Z,18.32
2024-04-14T16:58:35.371Z,18.35
2024-04-14T17:01:06.277Z,18.33
2024-04-14T17:03:33.785Z,18.43
2024-04-14T17:06:01.149Z,18.48
2024-04-14T17:08:29.186Z,18.66
2024-04-14T17:10:59.325Z,18.52
2024-04-14T17:13:26.778Z,17.73
2024-04-14T17:15:54.801Z,17.79
2024-04-14T17:18:22.234Z,17.91
2024-04-14T17:20:52.499Z,18.08
2024-04-14T17:23:19.981Z,18.20
2024-04-14T17:25:49.745Z,17.97
2024-04-14T17:28:17.187Z,17.89
2024-04-14T17:30:47.607Z,17.83
2024-04-14T17:33:15.149Z,17.68
2024-04-14T17:35:42.667Z,17.64
2024-04-14T17:38:10.003Z,17.37
2024-04-14T17:40:41.429Z,17.52
2024-04-14T17:43:11.802Z,17.48
2024-04-14T17:45:45.035Z,17.32
2024-04-14T17:48:14.607Z,17.37
2024-04-14T17:50:44.301Z,17.31
2024-04-14T17:53:11.613Z,17.01
2024-04-14T17:55:38.862Z,17.10
2024-04-14T17:58:06.163Z,17.08
2024-04-14T18:00:33.688Z,17.07
2024-04-14T18:03:01.249Z,16.94
2024-04-14T18:05:28.455Z,17.04
2024-04-14T18:07:58.343Z,16.98
2024-04-14T18:10:27.965Z,16.84
2024-04-14T18:12:55.521Z,16.84
2024-04-14T18:15:22.736Z,16.78
2024-04-14T18:17:50.063Z,16.68
2024-04-14T18:20:17.787Z,16.79
2024-04-14T18:22:45.189Z,16.70
2024-04-14T18:25:14.572Z,16.63
2024-04-14T18:27:43.228Z,16.47
2024-04-14T18:30:10.740Z,16.36
2024-04-14T18:32:41.450Z,16.48
2024-04-14T18:35:08.775Z,16.46
2024-04-14T18:37:37.195Z,16.36
2024-04-14T18:40:05.998Z,16.39
2024-04-14T18:42:33.144Z,16.12
2024-04-14T18:45:00.976Z,16.20
2024-04-14T18:47:33.594Z,16.17
2024-04-14T18:50:01.020Z,15.91
2024-04-14T18:52:32.066Z,15.93
2024-04-14T18:55:02.783Z,15.88
2024-04-14T18:57:33.386Z,15.62
2024-04-14T19:00:00.982Z,15.62
2024-04-14T19:02:31.004Z,15.74
2024-04-14T19:05:01.363Z,15.80
2024-04-14T19:07:28.877Z,15.88
2024-04-14T19:09:59.490Z,15.80
2024-04-14T19:12:26.693Z,15.66
2024-04-14T19:15:00.529Z,15.44
2024-04-14T19:17:30.398Z,15.56
2024-04-14T19:19:57.714Z,15.56
2024-04-14T19:22:25.653Z,15.40
2024-04-14T19:24:54.072Z,15.41
2024-04-14T19:27:21.274Z,15.36
2024-04-14T19:29:51.134Z,15.27
2024-04-14T19:32:23.965Z,14.94
2024-04-14T19:34:51.059Z,14.83
2024-04-14T19:37:19.097Z,14.78
2024-04-14T19:39:51.808Z,14.76
2024-04-14T19:42:22.912Z,14.60
2024-04-14T19:44:52.697Z,14.75
2024-04-14T19:47:22.555Z,14.77
2024-04-14T19:49:52.346Z,14.77
2024-04-14T19:52:20.448Z,14.71
2024-04-14T19:54:56.830Z,14.79
2024-04-14T19:57:29.975Z,14.66
2024-04-14T19:59:57.880Z,14.59
2024-04-14T20:02:26.469Z,14.65
2024-04-14T20:04:56.273Z,14.66
2024-04-14T20:07:24.919Z,14.37
2024-04-14T20:09:52.995Z,14.35
2024-04-14T20:12:20.407Z,14.26
2024-04-14T20:14:47.899Z,14.18
2024-04-14T20:17:17.671Z,14.11
2024-04-14T20:19:49.719Z,14.08
2024-04-14T20:22:17.059Z,13.95
2024-04-14T20:24:48.765Z,13.91
2024-04-14T20:27:18.588Z,13.95
2024-04-14T20:29:48.663Z,13.92
2024-04-14T20:32:15.979Z,13.82
2024-04-14T20:34:43.209Z,13.88
2024-04-14T20:37:11.414Z,14.00
2024-04-14T20:39:39.021Z,14.23
2024-04-14T20:42:16.847Z,13.95
2024-04-14T20:44:44.173Z,13.83
2024-04-14T20:47:12.195Z,13.84
2024-04-14T20:49:41.124Z,13.82
2024-04-14T20:52:11.938Z,13.69
2024-04-14T20:54:45.631Z,13.74
2024-04-14T20:57:18.071Z,13.80
2024-04-14T20:59:46.524Z,13.93
2024-04-14T21:02:14.035Z,14.01
2024-04-14T21:04:48.948Z,13.82
2024-04-14T21:07:17.995Z,13.86
2024-04-14T21:09:46.125Z,13.78
2024-04-14T21:12:13.744Z,13.73
2024-04-14T21:14:45.910Z,13.87
2024-04-14T21:17:17.908Z,13.83
2024-04-14T21:19:50.308Z,13.88
2024-04-14T21:22:18.118Z,13.84
2024-04-14T21:24:47.943Z,13.84
2024-04-14T21:27:16.813Z,13.89
2024-04-14T21:29:49.994Z,13.88
2024-04-14T21:32:17.405Z,13.87
2024-04-14T21:34:48.477Z,13.84
2024-04-14T21:37:15.790Z,13.85
2024-04-14T21:39:46.397Z,13.77
2024-04-14T21:42:13.663Z,13.59
2024-04-14T21:44:40.942Z,13.61
2024-04-14T21:47:08.662Z,13.85
2024-04-14T21:49:37.239Z,13.67
2024-04-14T21:52:05.337Z,13.67
2024-04-14T21:54:32.471Z,13.68
2024-04-14T21:56:59.602Z,13.38
2024-04-14T21:59:31.632Z,13.51
2024-04-14T22:01:58.833Z,13.54
2024-04-14T22:04:29.886Z,13.48
2024-04-14T22:06:57.268Z,13.67
2024-04-14T22:09:27.610Z,13.67
2024-04-14T22:11:54.993Z,13.62
2024-04-14T22:14:22.970Z,13.52
2024-04-14T22:16:50.912Z,13.22
2024-04-14T22:19:21.110Z,13.23
2024-04-14T22:21:50.749Z,13.13
2024-04-14T22:24:20.641Z,13.25
2024-04-14T22:26:48.056Z,13.26
2024-04-14T22:29:17.963Z,13.23
2024-04-14T22:31:46.134Z,13.23
2024-04-14T22:34:20.164Z,13.13
2024-04-14T22:36:52.658Z,13.04
2024-04-14T22:39:20.176Z,12.88
2024-04-14T22:41:47.825Z,12.81
2024-04-14T22:44:16.326Z,12.85
2024-04-14T22:46:46.226Z,12.74
2024-04-14T22:49:13.471Z,12.65
2024-04-14T22:51:40.785Z,12.49
2024-04-14T22:54:10.232Z,12.79
2024-04-14T22:56:37.250Z,12.74
2024-04-14T22:59:07.598Z,12.85
2024-04-14T23:01:35.006Z,12.55
2024-04-14T23:04:03.136Z,12.55
2024-04-14T23:06:38.332Z,12.72
2024-04-14T23:09:09.246Z,12.45
2024-04-14T23:11:37.200Z,12.26
2024-04-14T23:14:05.112Z,12.49
2024-04-14T23:16:32.954Z,12.60
2024-04-14T23:19:02.843Z,12.76
2024-04-14T23:21:30.119Z,12.77
2024-04-14T23:23:58.139Z,12.81
2024-04-14T23:26:28.149Z,12.56
2024-04-14T23:28:58.420Z,12.57
2024-04-14T23:31:28.310Z,12.70
2024-04-14T23:33:55.719Z,12.70
2024-04-14T23:36:25.475Z,12.60
2024-04-14T23:38:52.847Z,12.46
2024-04-14T23:41:20.041Z,12.33
2024-04-14T23:43:48.121Z,12.43
2024-04-14T23:46:15.691Z,12.39
2024-04-14T23:48:51.304Z,12.45
2024-04-14T23:51:18.368Z,12.37
2024-04-14T23:53:45.814Z,12.42
2024-04-14T23:56:16.660Z,12.33
2024-04-14T23:58:48.799Z,12.04
